Historique des mesures à Cassis (13260), France
Quotidien Résumé Janvier 22, 2018 Unités:  US    Métrique   Métrique/US
« Précédent (Jour)
Suivant (Jour) »
Quotidien Hebdomadaire Mensuel Annuel Période au choix
  Maximum: Minimum: Moyenne:
Température: 32 °F 56.5 °F 58.1 °F
Point de rosée: 32 °F 44.4 °F 45.5 °F
Humidité: Humidity % 54 % 59 %
Vitesse du vent: WindSpeedKMH mph 5.5 mph 17.9 mph
Rafales: WindSpeedGustKMH mph - -
Vent:- - WNW
Pression: 0 in 29.9 in -
Précipitations: 0 in    
Historical Graphs
 
 
Mesures pour : Janvier 22, 2018
Heure Temperature Point de rosée Pression Vent Vitesse du vent Rafales Humidité Pluie (par heure) Conditions
32 °F 32 °F 0 in Calm     Humidity % 0 in SoftwareType W/m2
00:12 59.2 °F 46.2 °F 29.9 in NW 9.7 mph 12.6 mph 62 % 0 in open2300-1.11 W/m2
01:12 58.1 °F 46 °F 29.9 in WNW 29.4 mph 29.4 mph 64 % 0 in open2300-1.11 W/m2
02:12 57.4 °F 45.7 °F 29.9 in WNW 10.1 mph 10.1 mph 65 % 0 in open2300-1.11 W/m2
03:12 56.8 °F 45.5 °F 29.9 in NNW 8.2 mph 28.2 mph 66 % 0 in open2300-1.11 W/m2
05:12 56.5 °F 44.4 °F 29.9 in West 9.3 mph 21.2 mph 64 % 0 in open2300-1.11 W/m2
06:12 56.5 °F 44.4 °F 29.9 in NW 24.8 mph 24.8 mph 64 % 0 in open2300-1.11 W/m2
07:12 57 °F 44.4 °F 29.9 in WNW 25.3 mph 25.3 mph 63 % 0 in open2300-1.11 W/m2
08:12 56.5 °F 44.8 °F 29.9 in NE 15.8 mph 15.8 mph 65 % 0 in open2300-1.11 W/m2
09:12 57.6 °F 45.3 °F 29.9 in WNW 18.7 mph 18.7 mph 64 % 0 in open2300-1.11 W/m2
10:12 59.5 °F 46 °F 29.9 in NW 32.8 mph 32.8 mph 61 % 0 in open2300-1.11 W/m2
11:12 61.2 °F 47.3 °F 29.9 in NW 27.4 mph 27.4 mph 60 % 0 in open2300-1.11 W/m2
12:12 61.7 °F 46.2 °F 29.9 in NNW 15.1 mph 28.8 mph 57 % 0 in open2300-1.11 W/m2
13:12 63.1 °F 46 °F 29.9 in WNW 21.2 mph 21.2 mph 54 % 0 in open2300-1.11 W/m2
14:12 63.3 °F 46.2 °F 29.9 in North 14.3 mph 21.9 mph 54 % 0 in open2300-1.11 W/m2
15:12 63 °F 46 °F 29.9 in WNW 15.1 mph 43.1 mph 54 % 0 in open2300-1.11 W/m2
16:12 61 °F 46 °F 29.9 in NW 29.1 mph 29.1 mph 58 % 0 in open2300-1.11 W/m2
17:12 60.6 °F 46.2 °F 29.9 in West 24.8 mph 27.7 mph 59 % 0 in open2300-1.11 W/m2
18:12 59.7 °F 47.5 °F 29.9 in WNW 25.3 mph 29.1 mph 64 % 0 in open2300-1.11 W/m2
19:12 59.7 °F 47.8 °F 29.9 in NW 8.7 mph 11.1 mph 65 % 0 in open2300-1.11 W/m2
20:12 59.7 °F 48.7 °F 29.9 in NNW 14.3 mph 28.8 mph 67 % 0 in open2300-1.11 W/m2
21:12 58.3 °F 48.6 °F 29.9 in NNW 5.5 mph 24.1 mph 70 % 0 in open2300-1.11 W/m2
22:12 58.8 °F 45.3 °F 29.9 in NNW 28.2 mph 28.2 mph 61 % 0 in open2300-1.11 W/m2
23:12 57.9 °F 44.6 °F 29.9 in West 15.4 mph 19.8 mph 61 % 0 in open2300-1.11 W/m2
Observations météo à CASSIS
WU-History script by Weather Underground - 1 mb